Aeroporto :
LOGIN :

Iscrizione | Disclaimer

   EN    FR    IT 

 










Sommario :    VFR   VFR Marginale   IFR   IFR Intensivo   IFR Molto Intensivo
Visibilità : 
Base nubi : 
>= 8 km
>= 3000ft
5 / 8 km
1000 / 3000 ft
1500m / 5 km
500 / 1000 ft
800 / 1500m
200 / 500 ft
< 800m
< 200 ft
Simboli :   Temporali  Nebbia  Neve Forte  Precipitazioni Forti  Vento > 20 kt
SIGMETs :   Varie  Temporali  Ghiacco  Turbolenza  Onda orograficha  Ceneri Vulcaniche







- Altitudine del aeroporto : 100 ft


EBDT - Schaffen

ULTIMO METAR :
  • 121325Z 24007KT 4000 BKN004 BKN006 02/01 Q1010 YLO GRN TEMPO YLO

METARs OBSOLETI :
  • 121255Z 24007KT 4000 -SHRA BKN004 BKN006 02/01 Q1010 YLO GRN TEMPO YLO
  • 121225Z 24007KT 9999 BKN005 02/01 Q1009 YLO GRN TEMPO YLO
  • 121155Z 25006KT 9999 BKN005 02/01 Q1009 YLO GRN TEMPO YLO
  • 121125Z 25008KT 9999 BKN005 02/01 Q1009 YLO GRN TEMPO YLO
  • 121055Z AUTO 25007KT 9999 SCT004/// BKN006/// BKN075/// 02/01 Q1008 YLO

TAF TAF EBDT
Valido dal 12 a 13 ore il 12 a 22 ore UTC


121228Z 1213/1222 25008KT 9999 SCT007 BKN013
TEMPO 1213/1215 4000 SNRA SHSNRA SCT005 BKN010
BECMG 1216/1218 22006KT FEW020 SCT200
Nessun NOTAM noto per questo aeroporto.



MetMap, La meteo Aeronautica in un colpo d'occhio ! - Copyright ORBIFLY Dicembre 2007 - Disclaimer

ORBIFLY MET'MAP TEAM :

Programmazione e sviluppo : Alexandra Zaïnal
Concezione e sviluppo : Baudouin d'Aumeries
Co-Programmazione e sviluppo : Marc-Olivier Méhu
Supporto tecnico e logistico : Manuel Goepfert
Aiuto per la traduzione : Arnaldo La Scala

Contatto : metmap@orbifly.com




FONTI E CREDITI :

   NOAA